Time;durP1;ratioP1;P1;durP2;ratioP2;P2;SDS_P1;SDS_P2;PMS_P1;PMS_P2;Temp;Humidity;BMP_temperature;BMP_pressure;BME280_temperature;BME280_humidity;BME280_pressure;Samples;Min_cycle;Max_cycle;Signal;HPM_P1;HPM_P2
2022/07/07 00:01:13;;;;;;;5.45;2.60;;;24.20;82.80;;;;;;5112540;28;20040;-67
2022/07/07 00:03:39;;;;;;;4.53;2.50;;;24.20;79.70;;;;;;5097863;28;20050;-67
2022/07/07 00:06:05;;;;;;;4.55;2.58;;;24.20;82.80;;;;;;5113868;28;20039;-66
2022/07/07 00:08:31;;;;;;;4.90;2.70;;;24.20;79.70;;;;;;5061618;28;20047;-67
2022/07/07 00:10:57;;;;;;;7.35;3.05;;;24.20;82.80;;;;;;5077340;28;20100;-65
2022/07/07 00:13:23;;;;;;;4.78;2.58;;;24.10;82.90;;;;;;5114426;28;20048;-64
2022/07/07 00:15:49;;;;;;;5.60;2.60;;;24.30;83.30;;;;;;5093502;28;20051;-64
2022/07/07 00:18:15;;;;;;;5.18;2.47;;;24.30;79.90;;;;;;5060438;28;20493;-63
2022/07/07 00:20:40;;;;;;;4.45;2.70;;;24.20;83.10;;;;;;5078794;28;20481;-63
2022/07/07 00:23:06;;;;;;;5.38;2.70;;;24.30;80.10;;;;;;5114665;28;20051;-64
2022/07/07 00:25:32;;;;;;;3.92;2.35;;;24.00;83.30;;;;;;5092577;28;20059;-62
2022/07/07 00:27:58;;;;;;;5.68;2.38;;;24.00;80.00;;;;;;5085520;28;20048;-63
2022/07/07 00:30:23;;;;;;;4.57;2.58;;;24.00;79.80;;;;;;5083165;28;20048;-64
2022/07/07 00:32:49;;;;;;;6.68;3.00;;;24.00;79.80;;;;;;5112927;28;20050;-64
2022/07/07 00:35:15;;;;;;;6.60;2.80;;;24.10;79.80;;;;;;5086836;28;20056;-64
2022/07/07 00:37:41;;;;;;;4.53;2.47;;;24.20;80.20;;;;;;5089840;28;20408;-64
2022/07/07 00:40:07;;;;;;;4.15;2.03;;;24.30;80.10;;;;;;5096484;28;20051;-63
2022/07/07 00:42:33;;;;;;;5.78;2.63;;;24.00;82.90;;;;;;5085149;28;20079;-64
2022/07/07 00:44:59;;;;;;;7.53;3.03;;;23.80;83.20;;;;;;5114577;28;20083;-64
2022/07/07 00:47:24;;;;;;;5.13;2.65;;;24.20;83.30;;;;;;5095055;28;20047;-64
2022/07/07 00:49:51;;;;;;;6.03;2.60;;;24.20;83.50;;;;;;5077982;28;20112;-63
2022/07/07 00:52:17;;;;;;;6.80;2.65;;;24.20;80.40;;;;;;5087272;28;20478;-64
2022/07/07 00:54:56;;;;;;;3.90;2.22;;;24.30;83.60;;;;;;5074535;28;20096;-63
2022/07/07 00:57:22;;;;;;;6.53;2.65;;;24.20;83.10;;;;;;5097965;28;20456;-63
2022/07/07 00:59:48;;;;;;;4.53;2.75;;;24.10;83.60;;;;;;5122850;27;20044;-64
2022/07/07 01:02:13;;;;;;;5.60;2.30;;;24.00;83.40;;;;;;5095598;28;20046;-64
2022/07/07 01:04:39;;;;;;;4.82;2.25;;;23.90;83.30;;;;;;5105964;28;20524;-64
2022/07/07 01:07:05;;;;;;;15.10;2.60;;;24.20;80.40;;;;;;5096047;28;20040;-63
2022/07/07 01:09:31;;;;;;;4.50;2.35;;;24.30;83.30;;;;;;5095913;28;20051;-65
2022/07/07 01:11:57;;;;;;;6.03;2.55;;;23.90;83.40;;;;;;5078747;28;20513;-63
2022/07/07 01:14:23;;;;;;;6.43;2.70;;;24.10;83.20;;;;;;5094694;28;20059;-65
2022/07/07 01:16:49;;;;;;;4.30;2.05;;;24.20;80.60;;;;;;5112439;28;20047;-64
2022/07/07 01:19:15;;;;;;;4.97;2.22;;;24.20;83.50;;;;;;5102075;28;20076;-68
2022/07/07 01:21:49;;;;;;;4.88;2.60;;;24.20;80.40;;;;;;5095431;28;20469;-68
2022/07/07 01:24:14;;;;;;;5.38;2.50;;;24.00;79.30;;;;;;5082293;28;20101;-64
2022/07/07 01:26:40;;;;;;;5.45;2.40;;;24.00;80.50;;;;;;5109040;28;20036;-64
2022/07/07 01:29:06;;;;;;;4.20;2.30;;;24.10;81.00;;;;;;5100895;28;20058;-64
2022/07/07 01:31:32;;;;;;;5.45;2.70;;;24.20;83.70;;;;;;5089801;28;20044;-63
2022/07/07 01:33:58;;;;;;;4.18;2.20;;;24.10;80.40;;;;;;5113460;28;20517;-64
2022/07/07 01:36:23;;;;;;;4.75;2.08;;;24.20;83.70;;;;;;5113492;28;20040;-64
2022/07/07 01:38:49;;;;;;;4.80;2.10;;;24.10;84.00;;;;;;5100750;28;20098;-64
2022/07/07 01:41:15;;;;;;;4.90;2.05;;;24.10;84.10;;;;;;5093901;28;20050;-64
2022/07/07 01:43:40;;;;;;;5.28;1.73;;;24.20;84.00;;;;;;5090796;28;20400;-63
2022/07/07 01:46:06;;;;;;;4.47;1.98;;;23.80;83.80;;;;;;5085620;28;20051;-64
2022/07/07 01:48:32;;;;;;;3.63;1.83;;;24.10;83.80;;;;;;5095610;28;20375;-64
2022/07/07 01:50:58;;;;;;;3.97;1.52;;;24.00;80.90;;;;;;5107542;28;20099;-64
2022/07/07 01:53:24;;;;;;;4.30;1.80;;;23.90;84.30;;;;;;5083996;28;20126;-64
2022/07/07 01:55:49;;;;;;;5.18;1.92;;;24.00;80.90;;;;;;5094718;28;20080;-63
2022/07/07 01:58:15;;;;;;;3.95;1.70;;;24.20;84.30;;;;;;5077910;28;20048;-63
2022/07/07 02:00:41;;;;;;;3.83;1.80;;;24.20;84.30;;;;;;5085672;28;20130;-63
2022/07/07 02:03:07;;;;;;;4.80;1.60;;;24.10;83.90;;;;;;5112861;28;20049;-63
2022/07/07 02:05:32;;;;;;;3.00;1.63;;;24.10;81.00;;;;;;5094311;28;20047;-63
2022/07/07 02:07:58;;;;;;;3.75;2.03;;;23.80;80.90;;;;;;5112245;28;20040;-64
2022/07/07 02:13:08;;;;;;;3.92;1.55;;;23.80;84.10;;;;;;5096044;28;20096;-64
2022/07/07 02:15:34;;;;;;;3.35;1.58;;;24.10;84.20;;;;;;5103740;28;20052;-64
2022/07/07 02:17:59;;;;;;;3.22;1.70;;;23.90;84.10;;;;;;5086116;28;20096;-64
2022/07/07 02:20:25;;;;;;;3.33;1.60;;;24.00;84.10;;;;;;5114310;28;20039;-63
2022/07/07 02:22:51;;;;;;;3.95;1.58;;;24.10;81.20;;;;;;5080901;28;20052;-64
2022/07/07 02:25:17;;;;;;;3.60;1.50;;;24.00;81.00;;;;;;5094273;28;20390;-63
2022/07/07 02:27:43;;;;;;;3.25;1.50;;;24.00;84.40;;;;;;5084767;28;20528;-64
2022/07/07 02:30:09;;;;;;;5.97;2.03;;;24.00;81.40;;;;;;5094534;28;20126;-64
2022/07/07 02:32:34;;;;;;;3.67;1.50;;;24.10;84.30;;;;;;5112831;28;20051;-64
2022/07/07 02:35:01;;;;;;;2.55;1.40;;;24.00;81.40;;;;;;5076827;28;20512;-63
2022/07/07 02:37:27;;;;;;;4.40;1.70;;;23.90;84.20;;;;;;5067483;28;20105;-64
2022/07/07 02:39:53;;;;;;;4.25;1.33;;;23.90;84.40;;;;;;5103303;28;20382;-64
2022/07/07 02:42:19;;;;;;;4.93;1.92;;;24.00;84.40;;;;;;5086978;28;20051;-62
2022/07/07 02:44:44;;;;;;;3.28;1.45;;;24.20;81.60;;;;;;5098300;28;20053;-63
2022/07/07 02:47:10;;;;;;;3.42;1.67;;;24.10;81.40;;;;;;5092579;28;20036;-63
2022/07/07 02:49:36;;;;;;;4.35;1.65;;;23.90;84.30;;;;;;5075771;28;20128;-63
2022/07/07 02:52:03;;;;;;;4.18;1.40;;;24.00;81.40;;;;;;5087683;28;20405;-65
2022/07/07 02:54:29;;;;;;;3.28;1.40;;;;;;;;;;5093055;28;20058;-68
2022/07/07 02:56:55;;;;;;;5.25;1.45;;;24.10;84.50;;;;;;5095952;28;20048;-64
2022/07/07 02:59:21;;;;;;;5.13;1.48;;;24.10;81.60;;;;;;5087301;28;20106;-63
2022/07/07 03:01:46;;;;;;;3.83;1.55;;;24.00;81.40;;;;;;5089418;28;20090;-65
2022/07/07 03:04:12;;;;;;;5.30;1.67;;;24.00;81.60;;;;;;5076111;28;20040;-63
2022/07/07 03:06:38;;;;;;;3.65;1.50;;;23.80;84.40;;;;;;5061846;28;20055;-64
2022/07/07 03:09:04;;;;;;;4.57;1.50;;;24.10;84.60;;;;;;5093428;28;20054;-65
2022/07/07 03:11:29;;;;;;;4.80;1.50;;;24.10;84.60;;;;;;5111535;28;20528;-65
2022/07/07 03:13:55;;;;;;;3.92;1.40;;;23.90;84.90;;;;;;5097161;28;20036;-65
2022/07/07 03:16:21;;;;;;;2.63;1.20;;;;;;;;;;5096756;28;20442;-66
2022/07/07 03:18:47;;;;;;;5.95;1.65;;;24.20;85.00;;;;;;5096759;28;20043;-64
2022/07/07 03:21:12;;;;;;;4.30;1.40;;;24.10;84.60;;;;;;5115897;28;20130;-65
2022/07/07 03:23:38;;;;;;;2.90;1.40;;;23.90;85.00;;;;;;5076060;28;20063;-65
2022/07/07 03:26:04;;;;;;;3.08;1.30;;;24.00;84.90;;;;;;5083576;28;20047;-64
2022/07/07 03:28:30;;;;;;;4.60;1.30;;;23.80;84.60;;;;;;5089560;28;20379;-65
2022/07/07 03:30:56;;;;;;;4.53;1.40;;;;;;;;;;5075983;28;20048;-66
2022/07/07 03:33:22;;;;;;;2.53;1.17;;;23.80;84.70;;;;;;5089209;28;20501;-65
2022/07/07 03:35:48;;;;;;;4.60;1.58;;;23.80;84.90;;;;;;5094023;28;20079;-64
2022/07/07 03:38:13;;;;;;;4.47;1.50;;;23.90;81.70;;;;;;5095671;28;20047;-64
2022/07/07 03:40:39;;;;;;;4.63;1.40;;;23.90;84.90;;;;;;5090639;28;20156;-65
2022/07/07 03:43:05;;;;;;;4.28;1.50;;;23.90;84.90;;;;;;5086590;28;20040;-64
2022/07/07 03:45:31;;;;;;;3.47;1.30;;;23.90;84.80;;;;;;5095685;28;20124;-65
2022/07/07 03:47:57;;;;;;;3.92;1.23;;;23.80;84.70;;;;;;5093256;28;20072;-68
2022/07/07 03:50:23;;;;;;;3.30;1.40;;;;;;;;;;5095114;28;20038;-67
2022/07/07 03:52:49;;;;;;;3.05;1.40;;;23.80;85.20;;;;;;5109449;28;20047;-68
2022/07/07 03:55:15;;;;;;;3.63;1.30;;;23.70;85.00;;;;;;5086132;28;20136;-68
2022/07/07 03:57:41;;;;;;;2.95;1.23;;;23.90;84.70;;;;;;5090214;28;20048;-68
2022/07/07 04:00:07;;;;;;;3.25;1.58;;;23.90;81.90;;;;;;5089764;28;20055;-68
2022/07/07 04:02:33;;;;;;;2.13;1.35;;;24.10;81.50;;;;;;5094884;28;20427;-68
2022/07/07 04:04:59;;;;;;;3.17;1.30;;;23.90;81.80;;;;;;5092369;28;20062;-68
2022/07/07 04:07:24;;;;;;;3.45;1.20;;;24.10;81.90;;;;;;5093732;28;20123;-68
2022/07/07 04:09:50;;;;;;;3.42;1.23;;;24.20;85.30;;;;;;5093066;28;20036;-64
2022/07/07 04:12:16;;;;;;;3.35;1.10;;;23.80;84.80;;;;;;5094439;28;20036;-64
2022/07/07 04:14:41;;;;;;;4.43;1.30;;;24.20;85.40;;;;;;5094638;28;20083;-65
2022/07/07 04:17:07;;;;;;;4.45;1.40;;;23.70;81.60;;;;;;5106125;28;20036;-67
2022/07/07 04:19:33;;;;;;;2.95;1.17;;;24.00;84.80;;;;;;5074016;28;20129;-67
2022/07/07 04:21:59;;;;;;;3.67;1.30;;;23.90;85.30;;;;;;5075833;28;20051;-68
2022/07/07 04:24:25;;;;;;;1.80;1.10;;;23.90;81.90;;;;;;5086192;28;20044;-68
2022/07/07 04:26:50;;;;;;;3.15;1.02;;;24.00;81.70;;;;;;5092463;28;20040;-67
2022/07/07 04:29:16;;;;;;;2.63;1.02;;;24.00;81.90;;;;;;5094502;28;20044;-64
2022/07/07 04:31:44;;;;;;;2.22;1.27;;;23.90;81.80;;;;;;5093974;28;20087;-65
2022/07/07 04:34:12;;;;;;;3.45;1.40;;;24.00;84.80;;;;;;5089356;28;20056;-65
2022/07/07 04:36:38;;;;;;;3.20;1.15;;;24.20;85.10;;;;;;5093348;28;20036;-65
2022/07/07 04:39:04;;;;;;;3.40;1.17;;;24.00;84.90;;;;;;5086382;28;20043;-65
2022/07/07 04:41:30;;;;;;;3.75;1.40;;;24.20;85.20;;;;;;5083060;28;20044;-64
2022/07/07 04:43:56;;;;;;;3.53;1.30;;;24.20;81.80;;;;;;5089374;28;20073;-65
2022/07/07 04:46:22;;;;;;;3.85;1.30;;;23.80;85.10;;;;;;5085864;28;20505;-65
2022/07/07 04:48:47;;;;;;;2.60;1.00;;;24.00;84.90;;;;;;5088096;28;20123;-65
2022/07/07 04:51:13;;;;;;;4.25;1.20;;;24.20;82.00;;;;;;5090233;28;20036;-64
2022/07/07 04:53:39;;;;;;;2.30;1.10;;;24.00;82.00;;;;;;5094108;28;20461;-68
2022/07/07 04:56:05;;;;;;;3.00;1.10;;;24.10;81.70;;;;;;5092066;28;20401;-67
2022/07/07 04:58:31;;;;;;;2.78;1.10;;;23.90;85.10;;;;;;5091543;28;20079;-68
2022/07/07 05:00:57;;;;;;;3.53;1.08;;;24.00;85.50;;;;;;5092636;28;20052;-68
2022/07/07 05:03:23;;;;;;;1.90;1.05;;;23.90;84.80;;;;;;5092693;28;20051;-65
2022/07/07 05:05:49;;;;;;;3.83;1.17;;;24.10;81.70;;;;;;5089366;28;20044;-64
2022/07/07 05:08:15;;;;;;;3.90;1.10;;;24.00;85.20;;;;;;5081728;28;20430;-64
2022/07/07 05:10:41;;;;;;;2.10;1.17;;;23.90;84.90;;;;;;5093706;28;20059;-64
2022/07/07 05:13:07;;;;;;;3.25;1.15;;;23.90;85.10;;;;;;5093498;28;20052;-64
2022/07/07 05:15:33;;;;;;;3.20;1.30;;;24.10;84.90;;;;;;5093366;28;20507;-64
2022/07/07 05:17:58;;;;;;;2.70;0.90;;;24.00;85.00;;;;;;5092889;28;20108;-64
2022/07/07 05:20:24;;;;;;;2.63;1.10;;;23.90;84.90;;;;;;5071908;28;20044;-64
2022/07/07 05:22:50;;;;;;;3.10;0.93;;;23.80;82.00;;;;;;5073731;28;20056;-65
2022/07/07 05:25:16;;;;;;;3.63;1.20;;;24.10;81.80;;;;;;5093186;28;20131;-64
2022/07/07 05:27:44;;;;;;;6.18;1.60;;;23.90;81.70;;;;;;5092136;28;20072;-64
2022/07/07 05:30:11;;;;;;;2.17;1.10;;;24.30;82.20;;;;;;5088591;28;20075;-64
2022/07/07 05:32:37;;;;;;;2.75;1.10;;;24.30;85.80;;;;;;5093256;28;20040;-65
2022/07/07 05:35:03;;;;;;;3.70;1.50;;;24.20;85.70;;;;;;5080129;28;20109;-64
2022/07/07 05:37:29;;;;;;;2.67;1.27;;;24.00;85.10;;;;;;5092973;28;20043;-64
2022/07/07 05:39:54;;;;;;;4.55;1.42;;;23.90;84.90;;;;;;5091524;28;20055;-64
2022/07/07 05:42:20;;;;;;;3.35;1.08;;;24.10;82.70;;;;;;5082394;28;20051;-64
2022/07/07 05:44:46;;;;;;;2.90;1.13;;;23.80;85.00;;;;;;5086421;28;20110;-64
2022/07/07 05:47:12;;;;;;;3.75;1.08;;;24.00;85.10;;;;;;5093307;28;20036;-64
2022/07/07 05:49:37;;;;;;;3.55;1.23;;;24.10;85.10;;;;;;5090039;28;20606;-66
2022/07/07 05:52:04;;;;;;;5.03;1.40;;;24.10;82.10;;;;;;5079786;28;20393;-67
2022/07/07 05:54:30;;;;;;;2.15;0.80;;;24.00;85.20;;;;;;5074650;28;20455;-68
2022/07/07 05:56:56;;;;;;;3.25;1.15;;;24.10;82.10;;;;;;5074006;28;20044;-64
2022/07/07 05:59:21;;;;;;;3.97;1.13;;;24.10;85.10;;;;;;5085271;28;20043;-65
2022/07/07 06:01:47;;;;;;;3.55;1.38;;;24.10;85.40;;;;;;5087690;28;20044;-64
2022/07/07 06:04:13;;;;;;;4.28;1.10;;;23.90;85.20;;;;;;5087974;28;20040;-64
2022/07/07 06:06:39;;;;;;;3.22;1.13;;;24.00;85.50;;;;;;5092315;28;20040;-65
2022/07/07 06:09:04;;;;;;;2.53;0.88;;;24.00;82.00;;;;;;5091320;28;20048;-64
2022/07/07 06:11:30;;;;;;;4.13;1.15;;;23.90;84.90;;;;;;5092418;28;20085;-63
2022/07/07 06:13:56;;;;;;;3.85;1.30;;;23.90;85.20;;;;;;5092470;28;20176;-63
2022/07/07 06:16:38;;;;;;;3.72;1.20;;;23.90;84.60;;;;;;5093680;28;20159;-65
2022/07/07 06:19:05;;;;;;;4.70;1.27;;;24.00;84.80;;;;;;5092862;28;20044;-64
2022/07/07 06:21:31;;;;;;;5.70;1.75;;;24.10;85.20;;;;;;5091325;28;20313;-64
2022/07/07 06:23:58;;;;;;;3.95;1.17;;;24.20;81.90;;;;;;5107582;28;20067;-63
2022/07/07 06:26:23;;;;;;;5.35;1.35;;;24.20;85.20;;;;;;5084526;28;20040;-63
2022/07/07 06:28:50;;;;;;;2.72;1.00;;;;;;;;;;5092794;28;20067;-68
2022/07/07 06:31:15;;;;;;;2.95;1.40;;;24.00;85.20;;;;;;5091869;28;20496;-64
2022/07/07 06:33:41;;;;;;;4.20;1.40;;;24.10;81.90;;;;;;5092093;28;20036;-63
2022/07/07 06:36:07;;;;;;;3.10;1.10;;;24.10;85.00;;;;;;5091460;28;20436;-62
2022/07/07 06:38:33;;;;;;;5.97;1.63;;;24.20;85.20;;;;;;5094013;28;20097;-64
2022/07/07 06:41:02;;;;;;;4.05;1.20;;;24.10;85.00;;;;;;5085412;28;20094;-62
2022/07/07 06:43:28;;;;;;;3.35;1.33;;;23.90;82.10;;;;;;5073306;28;20449;-65
2022/07/07 06:45:54;;;;;;;4.13;1.60;;;24.10;85.00;;;;;;5091685;28;20032;-64
2022/07/07 06:48:20;;;;;;;4.72;1.33;;;24.00;85.00;;;;;;5080402;28;20039;-63
2022/07/07 06:50:46;;;;;;;6.30;1.63;;;24.00;81.70;;;;;;5085465;28;20052;-63
2022/07/07 06:53:12;;;;;;;5.15;1.40;;;24.10;85.10;;;;;;5079933;28;20062;-63
2022/07/07 06:55:38;;;;;;;5.90;1.40;;;24.10;81.60;;;;;;5095116;28;20052;-62
2022/07/07 06:58:04;;;;;;;6.75;1.75;;;24.00;82.10;;;;;;5091856;28;20502;-64
2022/07/07 07:00:30;;;;;;;5.90;1.60;;;24.00;85.50;;;;;;5089498;28;20105;-61
2022/07/07 07:02:57;;;;;;;4.88;1.60;;;24.10;81.90;;;;;;5095937;28;20044;-62
2022/07/07 07:05:22;;;;;;;4.10;1.17;;;24.10;85.00;;;;;;5095702;28;20488;-62
2022/07/07 07:07:48;;;;;;;4.53;1.40;;;24.10;85.00;;;;;;5095525;28;20086;-62
2022/07/07 07:10:14;;;;;;;5.85;1.42;;;24.20;84.90;;;;;;5111410;28;20044;-63
2022/07/07 07:12:40;;;;;;;6.00;1.67;;;24.20;85.00;;;;;;5096254;28;20051;-63
2022/07/07 07:15:06;;;;;;;5.72;1.85;;;24.20;82.20;;;;;;5111673;28;20447;-63
2022/07/07 07:17:32;;;;;;;5.70;1.20;;;24.20;85.10;;;;;;5090564;28;20072;-65
2022/07/07 07:19:58;;;;;;;5.63;1.60;;;24.20;85.30;;;;;;5092201;28;20148;-69
2022/07/07 07:22:24;;;;;;;9.23;2.28;;;24.20;85.20;;;;;;5095876;28;20052;-62
2022/07/07 07:24:50;;;;;;;5.13;1.55;;;24.00;82.10;;;;;;5117041;28;20052;-63
2022/07/07 07:27:16;;;;;;;5.15;1.60;;;24.00;85.00;;;;;;5081543;28;20054;-64
2022/07/07 07:29:42;;;;;;;9.30;1.70;;;24.10;82.10;;;;;;5115973;28;20040;-65
2022/07/07 07:32:08;;;;;;;5.90;1.75;;;24.00;84.90;;;;;;5096915;28;20401;-66
2022/07/07 07:34:34;;;;;;;5.10;1.48;;;24.30;85.10;;;;;;5097480;28;20049;-65
2022/07/07 07:37:00;;;;;;;7.35;1.92;;;24.20;85.50;;;;;;5078286;28;20118;-71
2022/07/07 07:39:26;;;;;;;7.00;2.10;;;24.00;83.90;;;;;;5086747;28;20131;-70
2022/07/07 07:41:52;;;;;;;6.38;1.95;;;24.20;85.10;;;;;;5106843;28;20476;-70
2022/07/07 07:45:09;;;;;;;7.57;1.80;;;24.40;84.70;;;;;;5097135;28;20126;-70
2022/07/07 07:47:04;;;;;;;7.07;2.00;;;24.40;81.90;;;;;;5117079;28;20058;-71
2022/07/07 07:49:30;;;;;;;6.35;1.92;;;24.40;84.90;;;;;;5098006;28;20127;-65
2022/07/07 07:51:56;;;;;;;5.40;1.70;;;24.30;81.60;;;;;;5079414;28;20068;-65
2022/07/07 07:54:23;;;;;;;4.57;1.70;;;24.60;81.20;;;;;;5097394;28;20076;-62
2022/07/07 07:56:48;;;;;;;5.80;1.80;;;24.50;84.40;;;;;;5113762;28;20489;-73
2022/07/07 07:59:14;;;;;;;4.97;1.50;;;24.60;84.30;;;;;;5097170;28;20051;-64
2022/07/07 08:01:40;;;;;;;6.22;1.85;;;24.60;84.10;;;;;;5078712;28;20112;-67
2022/07/07 08:04:06;;;;;;;5.82;1.55;;;24.70;81.40;;;;;;5087884;28;20044;-74
2022/07/07 08:06:32;;;;;;;8.57;2.05;;;24.90;84.30;;;;;;5077683;28;20051;-62
2022/07/07 08:08:58;;;;;;;10.35;2.50;;;24.80;81.40;;;;;;5112219;28;20126;-62
2022/07/07 08:11:24;;;;;;;6.25;1.73;;;24.90;84.40;;;;;;5113770;28;20079;-62
2022/07/07 08:13:49;;;;;;;7.15;2.17;;;24.80;84.20;;;;;;5088227;28;20050;-63
2022/07/07 08:16:16;;;;;;;7.65;1.95;;;24.80;84.20;;;;;;5114364;28;20042;-74
2022/07/07 08:18:42;;;;;;;6.82;1.75;;;24.60;80.40;;;;;;5097790;28;20062;-62
2022/07/07 08:21:08;;;;;;;5.72;1.77;;;24.80;80.80;;;;;;5116443;28;20048;-62
2022/07/07 08:23:35;;;;;;;6.72;1.98;;;25.10;84.10;;;;;;5114561;28;20051;-62
2022/07/07 08:26:01;;;;;;;7.65;1.80;;;24.80;83.70;;;;;;5097030;28;20489;-62
2022/07/07 08:28:27;;;;;;;5.82;1.30;;;24.90;84.00;;;;;;5097517;28;20484;-63
2022/07/07 08:30:53;;;;;;;6.13;1.50;;;25.10;80.70;;;;;;5115965;28;20050;-62
2022/07/07 08:33:20;;;;;;;5.75;1.58;;;25.10;83.50;;;;;;5097634;28;20081;-62
2022/07/07 08:35:46;;;;;;;5.68;1.67;;;25.20;83.50;;;;;;5095595;28;20055;-62
2022/07/07 08:38:14;;;;;;;6.88;1.50;;;25.40;80.30;;;;;;5114591;28;20559;-63
2022/07/07 08:40:40;;;;;;;6.60;1.80;;;25.40;80.20;;;;;;5097348;28;20047;-63
2022/07/07 08:43:06;;;;;;;6.93;1.95;;;25.50;84.10;;;;;;5115597;28;20044;-63
2022/07/07 08:45:32;;;;;;;6.93;1.75;;;25.10;80.40;;;;;;5114406;28;20070;-63
2022/07/07 08:47:59;;;;;;;5.38;1.48;;;25.20;83.90;;;;;;5112471;28;20404;-62
2022/07/07 08:50:25;;;;;;;4.50;1.10;;;25.10;83.90;;;;;;5083371;28;20175;-63
2022/07/07 08:52:52;;;;;;;3.33;1.33;;;25.10;84.00;;;;;;5094731;28;20043;-73
2022/07/07 08:55:21;;;;;;;6.40;1.85;;;25.10;84.10;;;;;;5114698;28;20454;-70
2022/07/07 08:57:46;;;;;;;3.55;1.33;;;25.20;81.30;;;;;;5065192;28;20040;-74
2022/07/07 09:00:12;;;;;;;4.75;1.50;;;25.10;80.90;;;;;;5075710;28;20093;-74
2022/07/07 09:02:38;;;;;;;4.30;1.50;;;25.20;83.80;;;;;;5094689;28;20091;-74
2022/07/07 09:05:05;;;;;;;3.90;1.50;;;25.20;79.70;;;;;;5094709;28;20055;-72
2022/07/07 09:07:48;;;;;;;5.30;1.48;;;25.30;80.10;;;;;;5072376;28;20112;-71
2022/07/07 09:10:29;;;;;;;3.42;1.33;;;25.50;81.10;;;;;;5089443;28;20359;-72
2022/07/07 09:12:56;;;;;;;5.27;1.47;;;25.40;83.70;;;;;;5094489;28;20054;-73
2022/07/07 09:15:21;;;;;;;4.40;1.52;;;25.50;80.70;;;;;;5059355;28;20147;-63
2022/07/07 09:17:47;;;;;;;5.18;1.63;;;25.40;80.30;;;;;;5075551;28;20829;-64
2022/07/07 09:20:13;;;;;;;3.83;1.50;;;25.20;80.40;;;;;;5092707;28;20051;-74
2022/07/07 09:22:42;;;;;;;3.22;1.35;;;25.60;80.90;;;;;;5093814;28;20416;-63
2022/07/07 09:25:08;;;;;;;6.68;1.45;;;25.20;81.10;;;;;;5075892;28;20059;-73
2022/07/07 09:27:48;;;;;;;3.15;1.27;;;25.20;84.00;;;;;;5094095;28;20055;-72
2022/07/07 09:30:13;;;;;;;3.22;1.30;;;25.30;83.80;;;;;;5078066;28;20040;-72
2022/07/07 09:32:48;;;;;;;3.65;1.30;;;25.50;84.50;;;;;;5057901;28;20512;-70
2022/07/07 09:38:22;;;;;;;5.43;1.30;;;25.40;80.00;;;;;;5093761;28;20052;-63
2022/07/07 09:40:53;;;;;;;5.53;1.67;;;25.30;80.40;;;;;;5093664;28;20413;-71
2022/07/07 09:43:19;;;;;;;5.65;1.63;;;25.30;79.80;;;;;;5074764;28;20145;-73
2022/07/07 09:46:09;;;;;;;5.85;1.50;;;25.30;81.00;;;;;;5076227;28;20032;-66
2022/07/07 09:48:36;;;;;;;3.72;1.20;;;25.10;81.40;;;;;;5086448;28;20063;-62
2022/07/07 09:51:16;;;;;;;2.95;1.25;;;25.10;81.20;;;;;;5075916;28;20409;-63
2022/07/07 09:54:01;;;;;;;3.67;1.20;;;25.40;84.30;;;;;;5074921;28;20046;-63
2022/07/07 09:56:28;;;;;;;4.25;1.40;;;25.20;83.70;;;;;;5089536;28;20538;-70
2022/07/07 09:58:54;;;;;;;4.95;1.42;;;25.40;81.20;;;;;;5112000;28;20048;-73
2022/07/07 10:01:25;;;;;;;3.75;1.30;;;25.30;81.20;;;;;;5094652;28;20104;-73
2022/07/07 10:03:54;;;;;;;2.70;1.10;;;25.10;83.80;;;;;;5096238;28;20047;-72
2022/07/07 10:06:20;;;;;;;4.10;1.58;;;25.10;81.10;;;;;;5109282;28;20039;-73
2022/07/07 10:08:45;;;;;;;4.60;1.45;;;25.40;83.80;;;;;;5064789;28;20505;-73
2022/07/07 10:11:14;;;;;;;6.85;1.55;;;25.20;83.60;;;;;;5062486;28;20123;-74
2022/07/07 10:13:44;;;;;;;5.03;1.40;;;25.40;80.70;;;;;;5075943;28;20051;-74
2022/07/07 10:16:10;;;;;;;4.95;1.48;;;25.40;81.10;;;;;;5111854;28;20050;-75
2022/07/07 10:18:36;;;;;;;2.80;1.20;;;25.30;83.60;;;;;;5114026;28;20040;-73
2022/07/07 10:21:02;;;;;;;4.00;1.38;;;25.00;80.30;;;;;;5113769;28;20043;-76
2022/07/07 10:23:29;;;;;;;6.47;1.60;;;25.40;80.80;;;;;;5113510;28;20423;-75
2022/07/07 10:26:03;;;;;;;6.22;1.90;;;24.80;83.70;;;;;;5092558;28;20485;-74
2022/07/07 10:28:54;;;;;;;6.30;1.52;;;25.20;81.10;;;;;;5114028;28;20377;-73
2022/07/07 10:31:24;;;;;;;6.97;1.77;;;25.00;84.20;;;;;;5095903;28;20039;-68
2022/07/07 10:34:01;;;;;;;5.57;1.77;;;25.10;81.30;;;;;;5113876;28;20113;-63
2022/07/07 10:36:47;;;;;;;5.53;1.80;;;25.10;83.80;;;;;;5099993;28;20036;-62
2022/07/07 10:39:13;;;;;;;6.85;1.67;;;25.00;81.00;;;;;;5097885;28;20123;-75
2022/07/07 10:41:51;;;;;;;4.38;1.50;;;25.30;80.40;;;;;;5113443;28;20054;-74
2022/07/07 10:44:17;;;;;;;4.90;1.63;;;24.90;80.90;;;;;;5110980;28;20044;-65
2022/07/07 10:47:18;;;;;;;5.38;1.70;;;25.20;83.30;;;;;;5093941;28;20051;-66
2022/07/07 10:49:48;;;;;;;5.68;1.80;;;24.80;79.00;;;;;;5018344;28;20045;-62
2022/07/07 10:52:15;;;;;;;6.60;2.03;;;25.30;83.90;;;;;;5030921;28;20053;-65
2022/07/07 10:54:52;;;;;;;10.80;2.35;;;25.10;80.70;;;;;;5030866;28;20057;-73
2022/07/07 10:57:21;;;;;;;7.78;2.10;;;25.10;83.00;;;;;;5029062;28;20530;-64
2022/07/07 11:00:06;;;;;;;8.57;2.50;;;24.90;83.00;;;;;;5025838;28;20045;-73
2022/07/07 11:02:42;;;;;;;6.53;2.00;;;25.20;79.60;;;;;;5030863;28;20053;-63
2022/07/07 11:05:14;;;;;;;7.10;2.05;;;25.20;78.90;;;;;;5030837;28;20046;-74
2022/07/07 11:07:57;;;;;;;7.75;2.05;;;25.20;80.40;;;;;;5029771;28;20045;-74
2022/07/07 11:10:44;;;;;;;6.22;2.03;;;25.00;82.70;;;;;;4992692;28;20054;-73
2022/07/07 11:13:13;;;;;;;7.70;2.05;;;25.00;79.30;;;;;;5030378;28;20128;-74
2022/07/07 11:15:39;;;;;;;6.70;2.10;;;25.10;79.50;;;;;;5013981;28;20057;-62
2022/07/07 11:18:05;;;;;;;7.40;2.03;;;25.10;79.40;;;;;;5030673;28;20052;-61
2022/07/07 11:20:31;;;;;;;8.20;2.13;;;25.30;79.80;;;;;;5029028;28;20130;-61
2022/07/07 11:23:08;;;;;;;7.55;2.20;;;25.20;79.60;;;;;;5030458;28;20138;-61
2022/07/07 11:25:37;;;;;;;9.55;2.20;;;25.20;82.20;;;;;;5082258;28;20104;-61
2022/07/07 11:28:07;;;;;;;6.70;1.95;;;25.20;82.10;;;;;;5098634;28;20127;-62
2022/07/07 11:30:33;;;;;;;7.70;2.00;;;25.10;82.10;;;;;;5097398;28;20116;-61
2022/07/07 11:33:01;;;;;;;7.63;1.95;;;25.10;78.70;;;;;;5116591;28;20051;-61
2022/07/07 11:35:36;;;;;;;6.90;2.33;;;25.00;78.70;;;;;;5115291;28;20058;-61
2022/07/07 11:38:05;;;;;;;7.63;2.20;;;25.40;79.50;;;;;;5116651;28;20050;-61
2022/07/07 11:40:32;;;;;;;8.10;2.30;;;25.20;78.30;;;;;;5098688;28;20047;-61
2022/07/07 11:43:01;;;;;;;9.15;2.13;;;25.00;78.80;;;;;;5106963;28;20043;-62
2022/07/07 11:45:31;;;;;;;7.38;2.17;;;25.20;81.60;;;;;;5114537;28;20051;-61
2022/07/07 11:48:07;;;;;;;7.20;2.03;;;25.30;78.90;;;;;;5098531;28;20044;-62
2022/07/07 11:50:35;;;;;;;8.52;2.00;;;25.10;81.60;;;;;;5096026;28;20513;-61
2022/07/07 11:53:03;;;;;;;8.15;2.20;;;25.10;81.60;;;;;;5061456;28;20075;-62
2022/07/07 11:55:29;;;;;;;8.10;1.92;;;25.10;81.20;;;;;;5099990;28;20108;-62
2022/07/07 11:58:01;;;;;;;6.80;1.85;;;25.10;78.40;;;;;;5078027;28;20066;-61
2022/07/07 12:00:38;;;;;;;9.55;1.90;;;25.00;81.70;;;;;;5095803;28;20040;-61
2022/07/07 12:03:06;;;;;;;7.30;2.08;;;25.20;81.70;;;;;;5095776;28;20458;-62
2022/07/07 12:05:43;;;;;;;7.82;1.88;;;25.00;77.40;;;;;;5100803;28;20046;-62
2022/07/07 12:08:13;;;;;;;9.68;2.10;;;25.10;81.50;;;;;;5096136;28;20036;-62
2022/07/07 12:10:54;;;;;;;9.02;2.20;;;25.00;78.30;;;;;;5095940;28;20121;-62
2022/07/07 12:13:22;;;;;;;6.90;2.05;;;24.90;81.50;;;;;;5096016;28;20119;-62
2022/07/07 12:15:49;;;;;;;8.60;2.25;;;25.10;77.60;;;;;;5077441;28;20055;-62
2022/07/07 12:18:33;;;;;;;7.28;2.53;;;25.00;77.40;;;;;;5111419;28;20048;-64
2022/07/07 12:21:12;;;;;;;7.45;1.95;;;25.20;77.30;;;;;;5115701;28;20046;-66
2022/07/07 12:23:38;;;;;;;9.52;2.25;;;25.10;81.00;;;;;;5114949;28;20063;-63
2022/07/07 12:26:13;;;;;;;6.60;2.25;;;25.10;77.30;;;;;;5114037;28;20500;-72
2022/07/07 12:28:43;;;;;;;6.43;1.77;;;25.30;77.10;;;;;;5092303;28;20063;-64
2022/07/07 12:31:18;;;;;;;8.07;2.33;;;25.00;80.70;;;;;;5095186;28;20048;-67
2022/07/07 12:33:46;;;;;;;9.45;2.47;;;25.10;81.00;;;;;;5060766;28;20056;-78
2022/07/07 12:36:13;;;;;;;10.52;2.70;;;25.00;80.50;;;;;;5104943;28;20051;-68
2022/07/07 12:38:48;;;;;;;6.65;2.10;;;25.20;76.60;;;;;;5115343;28;20485;-78
2022/07/07 12:41:27;;;;;;;9.25;2.05;;;25.20;80.70;;;;;;5115421;28;20055;-79
2022/07/07 12:43:54;;;;;;;5.47;1.90;;;25.10;80.80;;;;;;5096442;28;20052;-79
2022/07/07 12:46:20;;;;;;;6.82;2.08;;;25.00;80.50;;;;;;5114135;28;20078;-65
2022/07/07 12:48:51;;;;;;;8.25;2.03;;;25.00;77.60;;;;;;5102543;28;20075;-74
2022/07/07 12:51:26;;;;;;;7.63;2.25;;;25.00;78.00;;;;;;5095104;28;20046;-74
2022/07/07 12:53:56;;;;;;;8.55;2.25;;;24.80;77.90;;;;;;5076916;28;20047;-63
2022/07/07 12:56:33;;;;;;;6.43;2.03;;;25.00;78.90;;;;;;5079961;28;20062;-64